Time;durP1;ratioP1;P1;durP2;ratioP2;P2;SDS_P1;SDS_P2;PMS_P1;PMS_P2;Temp;Humidity;BMP_temperature;BMP_pressure;BME280_temperature;BME280_humidity;BME280_pressure;Samples;Min_cycle;Max_cycle;Signal;HPM_P1;HPM_P2
2022/11/20 00:01:24;;;;;;;7.87;1.60;;;;;;;20.65;74.70;98606.34;5134668;27;20215;-89
2022/11/20 00:03:57;;;;;;;10.33;2.20;;;;;;;20.69;73.76;98607.69;5134329;27;20195;-88
2022/11/20 00:06:25;;;;;;;5.37;1.20;;;;;;;20.65;74.03;98612.50;5134434;27;20274;-89
2022/11/20 00:08:53;;;;;;;7.53;2.03;;;;;;;20.80;73.50;98610.09;5134411;27;20190;-90
2022/11/20 00:11:22;;;;;;;6.63;1.83;;;;;;;20.77;73.26;98605.09;5134335;27;20194;-88
2022/11/20 00:13:50;;;;;;;5.93;2.23;;;;;;;20.60;73.56;98620.13;5133995;27;20295;-88
2022/11/20 00:16:18;;;;;;;9.80;1.50;;;;;;;20.56;73.57;98617.94;5134128;27;20310;-89
2022/11/20 00:18:46;;;;;;;8.10;2.17;;;;;;;20.58;73.49;98613.28;5133103;27;20278;-89
2022/11/20 00:21:14;;;;;;;7.00;1.57;;;;;;;20.70;72.75;98622.69;5134350;27;20622;-89
2022/11/20 00:23:42;;;;;;;8.13;1.60;;;;;;;20.66;72.92;98619.50;5133995;27;20167;-91
2022/11/20 00:26:12;;;;;;;7.63;2.20;;;;;;;20.64;72.92;98620.66;5133557;27;20181;-89
2022/11/20 00:28:39;;;;;;;3.47;1.40;;;;;;;20.70;72.28;98626.16;5134026;27;20203;-90
2022/11/20 00:31:09;;;;;;;12.20;1.90;;;;;;;20.69;71.90;98623.69;5134098;27;20167;-88
2022/11/20 00:33:35;;;;;;;9.13;1.30;;;;;;;20.64;71.89;98610.00;5133787;27;20194;-88
2022/11/20 00:36:07;;;;;;;7.37;1.57;;;;;;;20.73;71.74;98603.72;5133069;28;20171;-87
2022/11/20 00:38:33;;;;;;;9.10;1.53;;;;;;;20.62;72.13;98601.34;5132886;28;20175;-90
2022/11/20 00:41:02;;;;;;;8.13;2.07;;;;;;;20.66;72.30;98608.00;5113725;27;20199;-89
2022/11/20 00:43:28;;;;;;;9.30;1.87;;;;;;;20.75;72.03;98605.22;5112482;28;20528;-87
2022/11/20 00:45:58;;;;;;;7.00;1.73;;;;;;;20.83;71.22;98599.94;5113390;28;20240;-88
2022/11/20 00:48:25;;;;;;;8.63;1.47;;;;;;;20.90;70.93;98589.50;5113177;28;20175;-87
2022/11/20 00:50:53;;;;;;;8.00;1.70;;;;;;;20.74;71.24;98598.25;5113427;28;20175;-87
2022/11/20 00:53:18;;;;;;;5.07;1.50;;;;;;;20.67;71.49;98589.22;5112848;28;20191;-87
2022/11/20 00:55:53;;;;;;;10.10;2.63;;;;;;;20.75;71.21;98589.25;5113150;28;20186;-88
2022/11/20 00:58:19;;;;;;;12.13;1.80;;;;;;;20.96;70.03;98596.88;5112080;28;20270;-87
2022/11/20 01:00:46;;;;;;;7.90;1.57;;;;;;;20.88;70.35;98601.31;5113484;28;20210;-88
2022/11/20 01:03:11;;;;;;;5.43;1.37;;;;;;;20.77;70.71;98599.75;5117158;28;20270;-88
2022/11/20 01:05:37;;;;;;;12.20;2.30;;;;;;;20.72;71.14;98596.72;5117224;28;20579;-88
2022/11/20 01:08:02;;;;;;;7.20;1.90;;;;;;;20.62;71.35;98601.34;5116922;28;20208;-89
2022/11/20 01:10:28;;;;;;;9.17;1.60;;;;;;;20.64;71.73;98599.34;5117273;28;20171;-89
2022/11/20 01:15:39;;;;;;;7.40;1.60;;;;;;;20.90;70.42;98600.16;5116820;28;20202;-87
2022/11/20 01:18:05;;;;;;;4.97;1.70;;;;;;;20.73;70.92;98604.56;5116951;28;20172;-90
2022/11/20 01:20:35;;;;;;;7.53;1.17;;;;;;;20.59;71.68;98605.16;5117288;28;20175;-87
2022/11/20 01:23:03;;;;;;;6.17;1.40;;;;;;;20.83;70.80;98596.47;5116986;27;20198;-88
2022/11/20 01:25:28;;;;;;;8.77;1.93;;;;;;;20.80;70.65;98596.78;5115822;28;20175;-88
2022/11/20 01:27:55;;;;;;;5.87;1.30;;;;;;;20.70;71.22;98590.72;5116758;28;20178;-88
2022/11/20 01:30:20;;;;;;;9.90;1.10;;;;;;;20.76;70.90;98588.25;5116791;28;20629;-88
2022/11/20 01:32:47;;;;;;;5.80;1.43;;;;;;;20.92;70.14;98584.84;5115725;28;20182;-87
2022/11/20 01:35:14;;;;;;;4.77;1.13;;;;;;;20.96;69.72;98588.03;5116684;28;20172;-88
2022/11/20 01:37:40;;;;;;;5.43;1.70;;;;;;;20.80;70.63;98588.78;5116623;28;20196;-88
2022/11/20 01:40:07;;;;;;;10.83;1.40;;;;;;;20.90;70.26;98581.50;5116574;28;20279;-88
2022/11/20 01:45:55;;;;;;;6.97;1.50;;;;;;;20.78;70.81;98604.06;5116583;28;20305;-87
2022/11/20 01:48:23;;;;;;;7.13;1.17;;;;;;;20.71;70.84;98593.22;5109032;28;20632;-88
2022/11/20 01:50:52;;;;;;;7.53;1.37;;;;;;;20.82;70.48;98597.44;5116647;28;20175;-88
2022/11/20 01:53:24;;;;;;;4.90;1.40;;;;;;;20.87;70.05;98600.47;5115439;28;20218;-87
2022/11/20 01:55:54;;;;;;;3.87;1.33;;;;;;;20.81;70.32;98606.44;5116394;28;20236;-86
2022/11/20 01:58:29;;;;;;;14.57;1.87;;;;;;;20.70;70.86;98594.22;5115004;27;20176;-88
2022/11/20 02:00:56;;;;;;;13.00;1.97;;;;;;;20.75;70.34;98593.75;5116690;28;20155;-89
2022/11/20 02:03:23;;;;;;;6.40;1.50;;;;;;;20.62;71.13;98590.69;5116387;28;20191;-88
2022/11/20 02:06:25;;;;;;;9.20;1.67;;;;;;;20.61;71.03;98591.66;5115984;28;20606;-90
2022/11/20 02:08:52;;;;;;;4.60;1.40;;;;;;;20.64;70.58;98592.19;5132170;27;20170;-88
2022/11/20 02:11:19;;;;;;;6.17;1.23;;;;;;;20.67;70.39;98596.38;5116073;28;20451;-89
2022/11/20 02:13:46;;;;;;;8.97;1.50;;;;;;;20.76;70.12;98592.75;5115140;28;20188;-89
2022/11/20 02:16:25;;;;;;;8.63;1.33;;;;;;;20.77;70.11;98584.63;5132051;27;20187;-89
2022/11/20 02:18:51;;;;;;;8.40;1.40;;;;;;;20.74;70.10;98586.75;5132302;27;20515;-88
2022/11/20 02:21:52;;;;;;;3.83;1.47;;;;;;;20.64;70.16;98580.69;5115884;28;20175;-88
2022/11/20 02:24:19;;;;;;;5.53;1.10;;;;;;;20.66;70.21;98576.03;5093453;28;20270;-88
2022/11/20 02:26:51;;;;;;;3.07;1.33;;;;;;;20.87;69.52;98589.81;5115598;27;20175;-88
2022/11/20 02:29:32;;;;;;;7.90;1.30;;;;;;;20.87;69.38;98594.31;5115508;28;20620;-88
2022/11/20 02:32:01;;;;;;;4.23;1.13;;;;;;;20.74;69.64;98589.41;5115769;27;20164;-88
2022/11/20 02:34:28;;;;;;;3.70;1.27;;;;;;;20.75;69.08;98575.91;5115808;28;20272;-89
2022/11/20 02:36:55;;;;;;;7.10;2.03;;;;;;;20.82;69.10;98576.97;5131554;27;20167;-89
2022/11/20 02:39:24;;;;;;;12.07;1.67;;;;;;;20.69;69.62;98570.41;5114411;28;20236;-88
2022/11/20 02:41:53;;;;;;;8.07;2.37;;;;;;;20.73;69.46;98571.75;5115598;28;20276;-89
2022/11/20 02:44:20;;;;;;;5.53;1.23;;;;;;;20.71;69.48;98571.06;5115142;28;20254;-89
2022/11/20 02:46:46;;;;;;;5.93;1.80;;;;;;;20.73;69.38;98567.25;5114294;28;20176;-88
2022/11/20 02:49:12;;;;;;;2.37;0.77;;;;;;;20.62;69.89;98569.38;5114444;28;20187;-88
2022/11/20 02:51:38;;;;;;;6.13;1.40;;;;;;;20.78;69.55;98564.97;5115345;28;20563;-90
2022/11/20 02:54:05;;;;;;;4.93;1.30;;;;;;;20.70;69.59;98553.44;5115130;28;20183;-89
2022/11/20 02:56:30;;;;;;;5.90;1.23;;;;;;;20.65;69.88;98553.09;5114342;28;20577;-88
2022/11/20 02:58:57;;;;;;;4.10;1.47;;;;;;;20.67;69.92;98549.28;5113950;28;20199;-87
2022/11/20 03:01:22;;;;;;;9.80;1.67;;;;;;;20.74;69.81;98549.47;5115156;28;20168;-88
2022/11/20 03:03:49;;;;;;;4.20;1.33;;;;;;;20.82;69.74;98552.16;5115058;28;20255;-88
2022/11/20 03:06:16;;;;;;;4.00;1.40;;;;;;;20.64;69.82;98546.91;5114659;28;20172;-87
2022/11/20 03:08:43;;;;;;;11.77;1.60;;;;;;;20.61;70.04;98549.06;5114759;28;20176;-88
2022/11/20 03:11:09;;;;;;;7.37;1.87;;;;;;;20.63;69.89;98547.06;5114888;28;20224;-88
2022/11/20 03:13:35;;;;;;;7.13;1.40;;;;;;;20.66;69.92;98552.06;5114815;28;20199;-88
2022/11/20 03:16:11;;;;;;;7.07;1.20;;;;;;;20.59;70.40;98559.88;5114501;28;20255;-88
2022/11/20 03:18:37;;;;;;;9.57;1.17;;;;;;;20.54;70.72;98551.53;5114642;28;20224;-88
2022/11/20 03:21:03;;;;;;;5.73;1.43;;;;;;;20.62;70.15;98548.88;5115152;28;20172;-87
2022/11/20 03:23:31;;;;;;;8.83;1.47;;;;;;;20.60;70.44;98542.03;5114650;28;20178;-89
2022/11/20 03:26:07;;;;;;;6.13;1.17;;;;;;;20.53;70.90;98538.34;5114483;28;20170;-87
2022/11/20 03:28:35;;;;;;;4.07;0.83;;;;;;;20.46;71.26;98539.97;5114481;28;20158;-88
2022/11/20 03:31:07;;;;;;;8.73;2.20;;;;;;;20.52;71.01;98545.50;5114821;28;20204;-88
2022/11/20 03:33:32;;;;;;;9.63;1.70;;;;;;;20.53;71.17;98546.34;5114982;28;20183;-88
2022/11/20 03:36:04;;;;;;;4.83;1.10;;;;;;;20.60;71.12;98544.72;5114350;28;20243;-88
2022/11/20 03:38:31;;;;;;;7.50;1.20;;;;;;;20.73;70.10;98542.44;5113952;28;20163;-88
2022/11/20 03:41:08;;;;;;;4.87;1.13;;;;;;;20.68;70.53;98544.75;5113342;28;20237;-87
2022/11/20 03:43:34;;;;;;;8.17;1.10;;;;;;;20.68;70.53;98548.25;5114377;28;20217;-89
2022/11/20 03:46:01;;;;;;;5.27;1.40;;;;;;;20.55;71.50;98547.00;5114196;28;20584;-87
2022/11/20 03:48:27;;;;;;;5.57;1.57;;;;;;;20.52;71.63;98536.69;5113788;28;20185;-88
2022/11/20 03:51:10;;;;;;;3.70;0.90;;;;;;;20.52;71.63;98540.19;5114465;28;20203;-88
2022/11/20 03:53:38;;;;;;;4.57;1.17;;;;;;;20.58;71.61;98536.06;5114278;28;20700;-88
2022/11/20 03:56:04;;;;;;;9.20;1.60;;;;;;;20.46;72.18;98534.66;5113932;28;20229;-87
2022/11/20 03:58:30;;;;;;;6.03;1.33;;;;;;;20.49;72.23;98532.50;5113713;28;20215;-88
2022/11/20 04:00:58;;;;;;;2.63;1.10;;;;;;;20.39;72.77;98517.66;5114170;28;20176;-89
2022/11/20 04:03:25;;;;;;;10.27;1.13;;;;;;;20.23;73.59;98519.19;5114191;28;20168;-87
2022/11/20 04:05:50;;;;;;;5.33;1.57;;;;;;;20.08;74.54;98502.09;5113957;28;20629;-88
2022/11/20 04:08:17;;;;;;;5.13;1.00;;;;;;;20.16;74.36;98499.50;5113393;28;20185;-87
2022/11/20 04:10:44;;;;;;;4.70;0.97;;;;;;;20.13;74.71;98491.81;5113799;28;20176;-88
2022/11/20 04:13:09;;;;;;;5.23;0.97;;;;;;;20.15;74.37;98487.16;5113718;28;20656;-89
2022/11/20 04:15:36;;;;;;;9.27;1.60;;;;;;;20.12;74.75;98484.00;5113699;28;20254;-87
2022/11/20 04:18:02;;;;;;;9.10;1.40;;;;;;;20.05;75.00;98486.44;5113229;28;20194;-87
2022/11/20 04:20:28;;;;;;;5.30;1.13;;;;;;;20.07;74.84;98486.31;5113900;28;20621;-87
2022/11/20 04:22:54;;;;;;;4.47;1.90;;;;;;;20.10;74.65;98492.13;5113772;28;20773;-88
2022/11/20 04:25:20;;;;;;;13.13;1.97;;;;;;;20.14;74.32;98501.50;5112793;28;20203;-90
2022/11/20 04:27:46;;;;;;;5.70;1.60;;;;;;;20.03;74.67;98517.69;5113276;28;20172;-89
2022/11/20 04:30:13;;;;;;;3.07;1.20;;;;;;;20.04;74.63;98507.91;5113545;28;20200;-87
2022/11/20 04:32:38;;;;;;;4.47;1.00;;;;;;;19.93;75.19;98503.66;5113957;28;20648;-87
2022/11/20 04:35:05;;;;;;;3.30;0.93;;;;;;;20.11;74.57;98514.25;5113666;28;20258;-88
2022/11/20 04:37:31;;;;;;;7.70;1.77;;;;;;;20.03;74.55;98516.84;5112690;28;20202;-87
2022/11/20 04:39:58;;;;;;;3.73;1.23;;;;;;;20.08;74.41;98523.38;5113490;28;20174;-91
2022/11/20 04:42:29;;;;;;;5.20;1.37;;;;;;;20.15;74.49;98513.78;5113345;28;20230;-88
2022/11/20 04:44:56;;;;;;;7.80;1.20;;;;;;;20.15;74.16;98511.13;5111951;28;20228;-89
2022/11/20 04:47:23;;;;;;;3.67;1.13;;;;;;;19.92;75.21;98522.41;5113084;28;20711;-89
2022/11/20 04:49:48;;;;;;;3.43;1.07;;;;;;;20.06;74.35;98522.72;5112654;28;20574;-88
2022/11/20 04:52:15;;;;;;;7.50;1.20;;;;;;;20.03;74.67;98517.69;5132081;28;20177;-90
2022/11/20 04:54:42;;;;;;;8.23;1.27;;;;;;;19.94;74.72;98513.28;5134266;27;20248;-88
2022/11/20 04:57:09;;;;;;;9.67;1.60;;;;;;;19.96;74.94;98508.69;5133811;27;20202;-90
2022/11/20 04:59:36;;;;;;;12.40;2.37;;;;;;;20.09;74.38;98518.91;5132684;28;20171;-88
2022/11/20 05:02:02;;;;;;;6.53;0.93;;;;;;;19.82;76.01;98527.84;5132818;28;20598;-90
2022/11/20 05:04:29;;;;;;;3.63;1.13;;;;;;;19.74;76.62;98524.25;5133858;27;20172;-89
2022/11/20 05:06:55;;;;;;;10.30;1.70;;;;;;;19.77;76.64;98515.97;5132935;28;20191;-89
2022/11/20 05:09:22;;;;;;;8.07;1.77;;;;;;;19.89;76.26;98510.25;5133748;27;20612;-88
2022/11/20 05:11:48;;;;;;;8.77;1.83;;;;;;;19.86;76.33;98515.91;5133811;27;20205;-90
2022/11/20 05:14:14;;;;;;;4.77;0.93;;;;;;;19.91;76.44;98521.59;5133226;27;20219;-88
2022/11/20 05:16:41;;;;;;;7.23;1.80;;;;;;;19.99;75.67;98523.50;5133249;27;20237;-87
2022/11/20 05:19:07;;;;;;;7.00;1.70;;;;;;;20.01;75.40;98527.66;5133259;27;20250;-89
2022/11/20 05:21:33;;;;;;;9.67;1.47;;;;;;;19.91;75.75;98532.25;5133754;27;20262;-90
2022/11/20 05:23:59;;;;;;;8.87;1.30;;;;;;;19.96;75.57;98535.28;5133628;27;20170;-89
2022/11/20 05:26:26;;;;;;;7.53;1.27;;;;;;;20.03;75.37;98530.16;5133532;27;20171;-89
2022/11/20 05:28:51;;;;;;;3.63;1.47;;;;;;;20.08;74.93;98534.03;5133214;27;20243;-88
2022/11/20 05:31:21;;;;;;;10.17;2.63;;;;;;;20.10;74.81;98536.53;5133708;27;20620;-88
2022/11/20 05:33:47;;;;;;;2.30;1.00;;;;;;;20.19;74.55;98535.59;5133547;27;20212;-89
2022/11/20 05:36:15;;;;;;;3.73;1.87;;;;;;;20.17;74.29;98525.13;5133360;27;20303;-89
2022/11/20 05:38:42;;;;;;;7.23;1.20;;;;;;;20.15;74.27;98531.59;5133079;27;20174;-88
2022/11/20 05:41:14;;;;;;;9.20;1.67;;;;;;;20.19;74.20;98531.13;5133597;27;20171;-87
2022/11/20 05:43:44;;;;;;;8.13;1.67;;;;;;;20.12;74.41;98530.09;5133354;27;20254;-88
2022/11/20 05:46:12;;;;;;;4.07;1.27;;;;;;;20.11;74.58;98535.53;5133319;27;20619;-87
2022/11/20 05:48:41;;;;;;;5.57;1.10;;;;;;;20.11;74.31;98532.88;5134348;27;20167;-88
2022/11/20 05:51:13;;;;;;;8.60;1.63;;;;;;;20.15;74.07;98529.75;5137062;27;20175;-88
2022/11/20 05:53:39;;;;;;;10.93;1.90;;;;;;;20.05;74.50;98521.03;5135832;27;20183;-88
2022/11/20 05:56:11;;;;;;;11.03;1.90;;;;;;;20.10;74.46;98518.75;5118312;27;20255;-87
2022/11/20 05:58:42;;;;;;;7.07;1.93;;;;;;;20.02;74.94;98523.19;5136030;27;20195;-87
2022/11/20 06:01:19;;;;;;;9.10;1.53;;;;;;;19.93;75.44;98530.25;5134849;27;20171;-88
2022/11/20 06:03:47;;;;;;;5.53;1.77;;;;;;;20.02;74.89;98529.31;5135254;27;20175;-90
2022/11/20 06:06:16;;;;;;;4.73;1.40;;;;;;;20.08;74.26;98523.38;5136998;27;20254;-89
2022/11/20 06:08:44;;;;;;;9.03;1.40;;;;;;;20.01;74.37;98522.34;5135515;27;20650;-86
2022/11/20 06:11:13;;;;;;;10.73;2.50;;;;;;;20.09;73.96;98527.72;5135669;27;20171;-88
2022/11/20 06:13:39;;;;;;;6.90;2.57;;;;;;;20.07;73.70;98534.19;5134331;27;20255;-89
2022/11/20 06:19:26;;;;;;;6.90;1.67;;;;;;;20.07;73.98;98536.84;5134408;27;20170;-90
2022/11/20 06:21:51;;;;;;;5.33;1.27;;;;;;;20.05;74.10;98539.66;5132760;27;20179;-88
2022/11/20 06:24:25;;;;;;;12.27;2.33;;;;;;;20.01;73.99;98533.00;5134486;27;20197;-89
2022/11/20 06:26:54;;;;;;;5.23;1.00;;;;;;;20.16;73.65;98547.41;5132608;27;20718;-90
2022/11/20 06:29:20;;;;;;;5.50;1.27;;;;;;;20.05;74.08;98537.00;5132314;27;20175;-90
2022/11/20 06:31:47;;;;;;;12.40;1.73;;;;;;;20.17;74.07;98530.44;5133987;27;20220;-89
2022/11/20 06:34:14;;;;;;;4.83;1.20;;;;;;;20.09;73.61;98533.06;5133012;27;20191;-91
2022/11/20 06:36:40;;;;;;;4.10;1.87;;;;;;;20.05;74.14;98528.16;5134895;27;20185;-88
2022/11/20 06:39:08;;;;;;;8.60;1.70;;;;;;;20.18;73.63;98524.13;5134750;27;20171;-90
2022/11/20 06:41:36;;;;;;;5.27;1.20;;;;;;;20.22;73.61;98522.84;5134866;27;20651;-89
2022/11/20 06:44:05;;;;;;;4.10;1.50;;;;;;;20.05;73.93;98525.50;5134718;27;20245;-90
2022/11/20 06:46:31;;;;;;;6.10;1.27;;;;;;;19.97;74.12;98542.25;5134671;27;20170;-90
2022/11/20 06:48:57;;;;;;;8.17;1.60;;;;;;;19.93;74.70;98551.53;5135868;27;20178;-90
2022/11/20 06:51:24;;;;;;;10.10;1.43;;;;;;;20.00;74.51;98554.41;5134199;27;20182;-87
2022/11/20 06:53:58;;;;;;;9.93;1.40;;;;;;;20.21;73.88;98566.41;5128359;27;20200;-90
2022/11/20 06:56:23;;;;;;;7.53;2.03;;;;;;;20.22;73.40;98568.06;5132765;27;20266;-89
2022/11/20 06:58:49;;;;;;;12.70;1.60;;;;;;;20.23;73.20;98564.44;5133599;27;20167;-90
2022/11/20 07:01:15;;;;;;;4.27;1.40;;;;;;;20.18;73.38;98569.34;5134427;27;20167;-89
2022/11/20 07:03:41;;;;;;;8.50;1.73;;;;;;;20.31;72.91;98571.66;5134309;27;20194;-89
2022/11/20 07:06:07;;;;;;;5.90;1.77;;;;;;;20.39;72.44;98579.69;5135751;27;20163;-89
2022/11/20 07:08:34;;;;;;;13.40;1.70;;;;;;;20.27;72.61;98588.09;5135581;27;20265;-91
2022/11/20 07:11:03;;;;;;;5.70;1.23;;;;;;;20.42;72.20;98590.03;5135097;27;20534;-90
2022/11/20 07:13:30;;;;;;;15.37;1.83;;;;;;;20.47;71.48;98589.56;5135586;27;20288;-91
2022/11/20 07:16:16;;;;;;;9.43;1.30;;;;;;;20.48;71.57;98597.41;5134227;27;20233;-90
2022/11/20 07:18:41;;;;;;;2.03;0.90;;;;;;;20.51;71.46;98607.75;5134426;27;20539;-90
2022/11/20 07:21:09;;;;;;;8.00;1.70;;;;;;;20.50;71.15;98595.41;5135489;27;20174;-88
2022/11/20 07:23:35;;;;;;;23.63;3.67;;;;;;;20.67;70.68;98594.53;5135073;27;20167;-88
2022/11/20 07:26:14;;;;;;;6.73;2.00;;;;;;;20.70;70.37;98604.06;5135111;27;20634;-90
2022/11/20 07:28:40;;;;;;;5.10;1.27;;;;;;;20.72;69.99;98602.06;5135299;27;20161;-87
2022/11/20 07:31:09;;;;;;;4.97;2.20;;;;;;;20.84;69.81;98604.28;5135166;27;20163;-90
2022/11/20 07:33:36;;;;;;;7.77;1.87;;;;;;;20.76;70.11;98606.91;5133886;27;20199;-90
2022/11/20 07:36:02;;;;;;;11.57;2.53;;;;;;;20.97;69.30;98609.19;5134836;27;20178;-90
2022/11/20 07:38:35;;;;;;;6.90;1.67;;;;;;;21.07;68.57;98606.44;5135009;27;20175;-90
2022/11/20 07:41:01;;;;;;;8.37;1.33;;;;;;;21.22;67.87;98608.34;5135003;27;20155;-88
2022/11/20 07:43:27;;;;;;;5.57;1.27;;;;;;;21.18;67.51;98614.97;5134745;27;20167;-90
2022/11/20 07:45:56;;;;;;;8.53;1.27;;;;;;;21.17;67.78;98610.63;5133845;27;20263;-89
2022/11/20 07:48:21;;;;;;;9.40;1.73;;;;;;;21.11;68.06;98616.63;5133852;27;20171;-89
2022/11/20 07:50:47;;;;;;;5.37;1.40;;;;;;;21.09;68.10;98609.78;5134787;27;20552;-89
2022/11/20 07:53:20;;;;;;;6.17;1.07;;;;;;;21.03;68.16;98611.22;5134764;27;20195;-90
2022/11/20 07:55:46;;;;;;;4.13;1.60;;;;;;;21.07;68.07;98607.25;5134766;27;20612;-90
2022/11/20 07:58:11;;;;;;;3.97;1.43;;;;;;;21.09;67.62;98609.78;5134929;27;20181;-88
2022/11/20 08:00:40;;;;;;;10.40;1.23;;;;;;;21.12;68.18;98609.47;5134669;27;20167;-89
2022/11/20 08:03:06;;;;;;;4.13;1.10;;;;;;;21.20;67.89;98597.00;5134202;27;20171;-89
2022/11/20 08:05:31;;;;;;;7.33;1.70;;;;;;;21.27;67.92;98597.19;5134267;27;20163;-89
2022/11/20 08:08:03;;;;;;;10.13;1.93;;;;;;;21.15;67.70;98583.31;5134399;27;20190;-88
2022/11/20 08:10:31;;;;;;;3.23;0.83;;;;;;;20.98;68.57;98591.38;5134381;27;20655;-90
2022/11/20 08:15:50;;;;;;;11.10;1.70;;;;;;;21.08;68.33;98603.63;5133463;27;20237;-90
2022/11/20 08:18:17;;;;;;;8.67;1.63;;;;;;;21.23;67.55;98602.00;5141074;27;20181;-90
2022/11/20 08:20:45;;;;;;;14.33;3.13;;;;;;;21.40;66.61;98617.09;5115970;27;20171;-89
2022/11/20 08:23:11;;;;;;;8.37;2.53;;;;;;;21.42;66.48;98603.59;5132832;27;20199;-89
2022/11/20 08:25:38;;;;;;;12.10;3.73;;;;;;;21.41;66.18;98605.41;5134104;27;20607;-91
2022/11/20 08:28:09;;;;;;;8.97;1.90;;;;;;;21.62;65.67;98606.81;5134208;27;20175;-89
2022/11/20 08:30:38;;;;;;;8.00;2.40;;;;;;;21.66;64.37;98603.66;5131607;27;20182;-90
2022/11/20 08:33:11;;;;;;;5.47;1.10;;;;;;;21.84;64.34;98601.69;5131665;27;20612;-92
2022/11/20 08:35:44;;;;;;;6.90;2.20;;;;;;;21.72;64.61;98594.16;5134092;27;20182;-90
2022/11/20 08:38:13;;;;;;;13.83;1.63;;;;;;;21.58;64.80;98589.47;5133167;28;20178;-89
2022/11/20 08:44:29;;;;;;;7.13;1.40;;;;;;;21.71;64.45;98573.81;5134186;27;20235;-88
2022/11/20 08:46:54;;;;;;;10.73;3.07;;;;;;;21.75;63.72;98570.66;5132654;28;20193;-90
2022/11/20 08:49:21;;;;;;;15.73;2.03;;;;;;;21.76;63.97;98563.47;5132828;28;20959;-89
2022/11/20 08:51:51;;;;;;;4.73;1.30;;;;;;;21.85;63.35;98550.00;5133856;27;20238;-89
2022/11/20 08:54:19;;;;;;;15.40;1.77;;;;;;;21.76;63.64;98550.97;5133880;27;20202;-89
2022/11/20 08:56:45;;;;;;;8.00;1.43;;;;;;;21.61;64.57;98546.47;5133938;27;20182;-89
2022/11/20 08:59:10;;;;;;;10.50;2.77;;;;;;;21.62;64.31;98542.81;5132702;28;20187;-88
2022/11/20 09:01:36;;;;;;;9.87;1.87;;;;;;;21.61;64.17;98543.78;5133275;27;20171;-87
2022/11/20 09:04:03;;;;;;;9.20;1.83;;;;;;;21.69;64.00;98549.16;5149824;27;20274;-90
2022/11/20 09:06:29;;;;;;;13.60;1.53;;;;;;;21.84;63.50;98536.81;5132674;28;20163;-89
2022/11/20 09:09:08;;;;;;;12.50;2.73;;;;;;;21.83;63.09;98549.31;5133740;28;20698;-94
2022/11/20 09:11:35;;;;;;;11.17;1.70;;;;;;;21.97;62.77;98542.53;5133868;28;20198;-88
2022/11/20 09:14:24;;;;;;;9.73;2.00;;;;;;;21.85;63.11;98554.50;5133595;28;20682;-92
2022/11/20 09:17:13;;;;;;;9.13;1.80;;;;;;;21.85;63.67;98555.34;5132922;28;20171;-90
2022/11/20 09:19:38;;;;;;;9.87;2.03;;;;;;;21.81;63.08;98555.81;5126656;28;20643;-89
2022/11/20 09:22:13;;;;;;;13.07;2.00;;;;;;;21.98;62.99;98545.03;5133906;27;20254;-90
2022/11/20 09:24:38;;;;;;;11.10;1.83;;;;;;;22.15;62.32;98545.00;5137687;27;20176;-89
2022/11/20 09:27:04;;;;;;;14.73;2.53;;;;;;;22.10;62.43;98540.19;5137431;27;20716;-89
2022/11/20 09:29:30;;;;;;;6.00;1.73;;;;;;;22.10;62.45;98536.66;5153676;27;20708;-90
2022/11/20 09:32:01;;;;;;;8.80;1.80;;;;;;;22.00;62.36;98539.53;5137389;27;20170;-91
2022/11/20 09:34:37;;;;;;;10.37;2.17;;;;;;;22.09;62.38;98540.38;5137592;27;20241;-89
2022/11/20 09:37:02;;;;;;;14.13;2.57;;;;;;;22.13;62.23;98526.50;5137257;27;20163;-88
2022/11/20 09:39:38;;;;;;;;;;;;;;;;;;;;;
2022/11/20 09:42:27;;;;;;;15.80;2.80;;;;;;;22.25;61.55;98529.69;5137087;27;20182;-89
2022/11/20 09:45:19;;;;;;;9.90;2.03;;;;;;;22.42;61.42;98523.28;5153607;27;20173;-91
2022/11/20 09:48:51;;;;;;;12.33;2.23;;;;;;;22.42;61.38;98521.47;5153714;27;20159;-89
2022/11/20 09:51:37;;;;;;;6.77;1.30;;;;;;;22.28;61.18;98506.13;5136551;27;20339;-88
2022/11/20 09:54:13;;;;;;;15.73;2.77;;;;;;;22.55;59.79;98511.09;5153491;27;20230;-91
2022/11/20 09:56:53;;;;;;;5.17;1.50;;;;;;;22.63;59.63;98518.28;5153698;27;20163;-91
2022/11/20 09:59:40;;;;;;;17.77;2.90;;;;;;;22.79;59.17;98512.03;5136990;27;20242;-89
2022/11/20 10:02:23;;;;;;;10.07;1.97;;;;;;;22.77;59.15;98516.72;5137118;27;20230;-90
2022/11/20 10:05:41;;;;;;;15.03;2.07;;;;;;;22.95;58.59;98520.00;5153177;27;20292;-92
2022/11/20 10:08:29;;;;;;;18.93;2.37;;;;;;;22.99;58.53;98518.63;5124917;27;20659;-90
2022/11/20 10:11:13;;;;;;;11.57;1.93;;;;;;;23.09;58.23;98525.44;5152274;27;20178;-89
2022/11/20 10:13:53;;;;;;;11.33;2.23;;;;;;;23.21;58.82;98526.72;5137298;27;20235;-88
2022/11/20 10:16:52;;;;;;;16.17;2.53;;;;;;;23.70;57.07;98518.41;5136508;27;20187;-88
2022/11/20 10:19:33;;;;;;;10.70;1.73;;;;;;;24.13;56.13;98525.81;5136747;27;20163;-90
2022/11/20 10:22:29;;;;;;;11.87;2.07;;;;;;;24.24;55.45;98517.31;5136437;27;20220;-89
2022/11/20 10:25:20;;;;;;;11.90;2.07;;;;;;;24.26;54.68;98514.47;5136565;27;20155;-89
2022/11/20 10:28:07;;;;;;;11.90;1.90;;;;;;;24.58;53.54;98514.13;5136325;27;20155;-89
2022/11/20 10:30:40;;;;;;;9.17;1.57;;;;;;;24.83;52.91;98517.41;5135575;27;20181;-89
2022/11/20 10:33:31;;;;;;;19.43;1.60;;;;;;;24.45;52.58;98508.56;5130862;27;20171;-90
2022/11/20 10:36:42;;;;;;;13.67;2.50;;;;;;;24.11;54.13;98519.78;5134890;27;20546;-92
2022/11/20 10:39:26;;;;;;;18.70;2.83;;;;;;;24.24;54.43;98511.16;5072881;28;20199;-90
2022/11/20 10:41:59;;;;;;;8.70;2.00;;;;;;;24.36;54.64;98504.31;5134407;27;20619;-92
2022/11/20 10:47:59;;;;;;;10.83;2.50;;;;;;;24.20;54.41;98493.75;5136160;27;20190;-88
2022/11/20 10:50:25;;;;;;;12.97;3.40;;;;;;;24.11;54.00;98492.19;5102695;27;20190;-91
2022/11/20 10:53:30;;;;;;;8.95;2.13;;;;;;;23.90;55.01;98489.34;5133908;27;20171;-91
2022/11/20 10:56:17;;;;;;;14.80;2.53;;;;;;;24.19;54.19;98481.38;5131022;27;20675;-87
2022/11/20 10:59:34;;;;;;;;;;;;;;;;;;;;;
2022/11/20 11:02:25;;;;;;;5.37;1.53;;;;;;;24.13;53.62;98474.09;5114736;28;20156;-93
2022/11/20 11:05:24;;;;;;;10.00;2.13;;;;;;;24.18;53.53;98464.50;5113283;28;20232;-92
2022/11/20 11:08:05;;;;;;;;;;;;;;;;;;;;;
2022/11/20 11:11:01;;;;;;;16.50;2.63;;;;;;;24.84;51.84;98452.84;5053153;28;20188;-91
2022/11/20 11:13:37;;;;;;;8.70;1.87;;;;;;;25.05;50.98;98431.47;5048754;28;20224;-89
2022/11/20 11:16:04;;;;;;;9.17;1.30;;;;;;;24.98;51.12;98433.25;5072512;28;20753;-91
2022/11/20 11:18:35;;;;;;;14.50;1.97;;;;;;;24.99;51.07;98412.63;5051481;28;20673;-89
2022/11/20 11:21:22;;;;;;;12.40;2.38;;;;;;;25.01;51.10;98408.72;5040916;28;20760;-88
2022/11/20 11:27:13;;;;;;;9.48;2.53;;;;;;;25.11;50.66;98391.50;5038628;28;20194;-89
2022/11/20 11:29:39;;;;;;;18.15;3.15;;;;;;;25.22;49.92;98380.25;5058946;28;20177;-90
2022/11/20 11:32:21;;;;;;;10.57;2.25;;;;;;;25.44;49.63;98381.94;5071344;28;20567;-89
2022/11/20 11:35:23;;;;;;;13.27;2.15;;;;;;;25.18;49.11;98392.41;5072605;28;20203;-90
2022/11/20 11:37:53;;;;;;;13.65;2.70;;;;;;;24.75;50.21;98392.31;5063943;28;20199;-88
2022/11/20 11:40:26;;;;;;;12.95;2.47;;;;;;;24.56;51.29;98387.53;5075536;28;20184;-89
2022/11/20 11:50:56;;;;;;;14.80;2.45;;;;;;;24.53;50.75;98387.09;4992002;28;20600;-94
2022/11/20 11:53:29;;;;;;;11.30;2.33;;;;;;;24.20;51.45;98387.47;5047979;28;20224;-89
2022/11/20 11:59:28;;;;;;;9.60;1.73;;;;;;;24.07;51.63;98394.44;5060922;28;20181;-90
2022/11/20 12:02:15;;;;;;;9.00;2.13;;;;;;;24.08;51.91;98398.81;5114672;28;20160;-91
2022/11/20 12:05:52;;;;;;;9.73;1.93;;;;;;;24.31;50.98;98389.69;5114211;28;20536;-93
2022/11/20 12:09:07;;;;;;;13.57;2.93;;;;;;;24.36;50.92;98402.53;5051418;28;20185;-95
2022/11/20 12:14:50;;;;;;;7.05;2.17;;;;;;;24.73;50.24;98389.00;5071440;28;20249;-92
2022/11/20 12:17:24;;;;;;;15.90;3.28;;;;;;;24.57;49.78;98385.69;5091356;28;20291;-95
2022/11/20 12:20:14;;;;;;;15.73;2.63;;;;;;;24.55;50.16;98388.56;5093514;28;20698;-91
2022/11/20 12:23:38;;;;;;;21.90;2.90;;;;;;;24.45;49.88;98396.88;5092674;28;20172;-90
2022/11/20 12:26:31;;;;;;;13.77;2.20;;;;;;;24.36;50.79;98392.66;5052166;28;20189;-94
2022/11/20 12:33:00;;;;;;;19.20;3.27;;;;;;;24.29;51.07;98386.34;5046631;28;20717;-92
2022/11/20 12:47:09;;;;;;;12.35;1.90;;;;;;;24.44;50.01;98364.94;5080510;28;20226;-92
2022/11/20 12:53:49;;;;;;;14.17;2.50;;;;;;;24.57;49.80;98374.97;4972389;28;20319;-90